createdAt,value
2019-01-12T00:00:18.611Z,0.94
2019-01-12T00:01:18.586Z,1.03
2019-01-12T00:02:18.574Z,1.04
2019-01-12T00:03:18.553Z,0.94
2019-01-12T00:04:18.288Z,0.96
2019-01-12T00:05:18.516Z,1.07
2019-01-12T00:06:18.497Z,1.08
2019-01-12T00:07:18.236Z,1.04
2019-01-12T00:08:18.457Z,1.03
2019-01-12T00:09:18.436Z,0.94
2019-01-12T00:10:18.422Z,0.94
2019-01-12T00:11:18.408Z,1
2019-01-12T00:12:18.135Z,0.99
2019-01-12T00:13:18.361Z,0.96
2019-01-12T00:14:18.383Z,1
2019-01-12T00:15:18.445Z,1
2019-01-12T00:16:18.076Z,1.08
2019-01-12T00:17:18.291Z,0.94
2019-01-12T00:18:18.029Z,1.03
2019-01-12T00:19:18.251Z,0.97
2019-01-12T00:20:18.231Z,0.97
2019-01-12T00:21:18.215Z,1.08
2019-01-12T00:22:18.189Z,1.08
2019-01-12T00:23:18.178Z,1.07
2019-01-12T00:24:18.154Z,1.08
2019-01-12T00:25:17.886Z,1.1
2019-01-12T00:26:18.117Z,1.11
2019-01-12T00:27:18.100Z,1.02
2019-01-12T00:28:18.077Z,1.03
2019-01-12T00:29:17.809Z,1.03
2019-01-12T00:30:17.796Z,1.02
2019-01-12T00:31:18.024Z,1.08
2019-01-12T00:32:18.004Z,1.12
2019-01-12T00:33:17.987Z,1.1
2019-01-12T00:34:17.966Z,1.08
2019-01-12T00:35:17.948Z,1.03
2019-01-12T00:36:17.930Z,1.1
2019-01-12T00:37:17.913Z,1.08
2019-01-12T00:38:17.893Z,1.12
2019-01-12T00:39:17.619Z,1.11
2019-01-12T00:40:17.855Z,1.03
2019-01-12T00:41:18.612Z,1.1
2019-01-12T00:42:17.811Z,1.11
2019-01-12T00:43:17.795Z,1.11
2019-01-12T00:44:17.786Z,1.1
2019-01-12T00:45:17.755Z,1.02
2019-01-12T00:46:17.739Z,1.1
2019-01-12T00:47:17.717Z,1.11
2019-01-12T00:48:17.701Z,1.11
2019-01-12T00:49:17.431Z,1.1
2019-01-12T00:50:17.415Z,1.04
2019-01-12T00:51:17.642Z,1.08
2019-01-12T00:52:17.626Z,1
2019-01-12T00:53:17.607Z,1.11
2019-01-12T00:54:17.590Z,1.11
2019-01-12T00:55:17.574Z,1.14
2019-01-12T00:56:17.555Z,1.12
2019-01-12T00:57:17.531Z,1.12
2019-01-12T00:58:17.263Z,1.07
2019-01-12T00:59:24.795Z,1.12
2019-01-12T01:00:17.473Z,1.17
2019-01-12T01:01:17.451Z,1.12
2019-01-12T01:02:17.431Z,1.1
2019-01-12T01:03:17.416Z,1.1
2019-01-12T01:04:17.399Z,1.11
2019-01-12T01:05:17.391Z,1.08
2019-01-12T01:06:17.362Z,1.02
2019-01-12T01:07:17.343Z,1.18
2019-01-12T01:08:17.320Z,1.17
2019-01-12T01:09:17.304Z,1.2
2019-01-12T01:10:17.290Z,1.17
2019-01-12T01:11:17.263Z,1.11
2019-01-12T01:12:17.247Z,1.11
2019-01-12T01:13:17.231Z,1.1
2019-01-12T01:14:17.214Z,1.12
2019-01-12T01:15:16.939Z,1.17
2019-01-12T01:16:17.176Z,1.15
2019-01-12T01:17:17.193Z,1.2
2019-01-12T01:18:17.136Z,1.12
2019-01-12T01:19:17.124Z,1.11
2019-01-12T01:20:17.103Z,1.11
2019-01-12T01:21:17.077Z,1.17
2019-01-12T01:22:16.812Z,1.15
2019-01-12T01:23:17.041Z,1.18
2019-01-12T01:24:17.023Z,1.11
2019-01-12T01:25:17.006Z,1.11
2019-01-12T01:26:16.990Z,1.11
2019-01-12T01:27:16.965Z,1.2
2019-01-12T01:28:16.950Z,1.15
2019-01-12T01:29:16.925Z,1.08
2019-01-12T01:30:16.908Z,1.11
2019-01-12T01:31:16.642Z,1.17
2019-01-12T01:32:16.873Z,1.15
2019-01-12T01:33:16.861Z,1.17
2019-01-12T01:34:16.833Z,1.18
2019-01-12T01:35:16.820Z,1.21
2019-01-12T01:36:16.796Z,1.21
2019-01-12T01:37:16.830Z,1.15
2019-01-12T01:38:16.765Z,1.21
2019-01-12T01:39:16.740Z,1.21
2019-01-12T01:40:16.724Z,1.2
2019-01-12T01:41:16.702Z,1.15
2019-01-12T01:42:16.688Z,1.22
2019-01-12T01:43:16.668Z,1.22
2019-01-12T01:44:16.148Z,1.29
2019-01-12T01:45:16.379Z,1.24
2019-01-12T01:46:16.615Z,1.2
2019-01-12T01:47:16.589Z,1.15
2019-01-12T01:48:16.570Z,1.18
2019-01-12T01:49:16.306Z,1.29
2019-01-12T01:50:16.536Z,1.21
2019-01-12T01:51:16.516Z,1.21
2019-01-12T01:52:16.498Z,1.2
2019-01-12T01:53:16.482Z,1.24
2019-01-12T01:54:16.215Z,1.22
2019-01-12T01:55:16.442Z,1.22
2019-01-12T01:56:16.431Z,1.2
2019-01-12T01:57:16.156Z,1.22
2019-01-12T01:58:16.140Z,1.24
2019-01-12T01:59:16.373Z,1.15
2019-01-12T02:00:16.347Z,1.24
2019-01-12T02:01:16.331Z,1.28
2019-01-12T02:02:16.315Z,1.18
2019-01-12T02:03:16.293Z,1.26
2019-01-12T02:04:16.028Z,1.26
2019-01-12T02:05:16.256Z,1.2
2019-01-12T02:06:15.997Z,1.18
2019-01-12T02:07:16.219Z,1.26
2019-01-12T02:08:16.207Z,1.2
2019-01-12T02:09:16.188Z,1.21
2019-01-12T02:10:16.161Z,1.15
2019-01-12T02:11:16.148Z,1.26
2019-01-12T02:12:16.120Z,1.26
2019-01-12T02:13:15.855Z,1.21
2019-01-12T02:14:15.836Z,1.29
2019-01-12T02:15:16.069Z,1.26
2019-01-12T02:16:15.804Z,1.33
2019-01-12T02:17:16.034Z,1.32
2019-01-12T02:18:16.010Z,1.35
2019-01-12T02:19:15.993Z,1.28
2019-01-12T02:20:15.729Z,1.22
2019-01-12T02:21:15.957Z,1.28
2019-01-12T02:22:15.690Z,1.32
2019-01-12T02:23:15.421Z,1.26
2019-01-12T02:24:15.900Z,1.3
2019-01-12T02:25:15.881Z,1.21
2019-01-12T02:26:15.867Z,1.3
2019-01-12T02:27:15.844Z,1.36
2019-01-12T02:28:15.831Z,1.29
2019-01-12T02:29:15.566Z,1.28
2019-01-12T02:30:15.800Z,1.29
2019-01-12T02:31:15.804Z,1.3
2019-01-12T02:32:15.754Z,1.33
2019-01-12T02:33:15.491Z,1.32
2019-01-12T02:34:15.469Z,1.28
2019-01-12T02:35:15.766Z,1.35
2019-01-12T02:36:15.429Z,1.24
2019-01-12T02:37:15.663Z,1.32
2019-01-12T02:38:15.645Z,1.2
2019-01-12T02:39:15.629Z,1.32
2019-01-12T02:40:15.619Z,1.36
2019-01-12T02:41:15.591Z,1.35
2019-01-12T02:42:15.595Z,1.3
2019-01-12T02:43:15.608Z,1.2
2019-01-12T02:44:15.680Z,1.21
2019-01-12T02:45:15.556Z,1.3
2019-01-12T02:46:17.194Z,1.35
2019-01-12T02:47:15.479Z,1.29
2019-01-12T02:48:15.454Z,1.32
2019-01-12T02:49:15.438Z,1.29
2019-01-12T02:50:15.449Z,1.15
2019-01-12T02:51:15.404Z,1.29
2019-01-12T02:52:15.390Z,1.24
2019-01-12T02:53:15.367Z,1.26
2019-01-12T02:54:15.342Z,1.15
2019-01-12T02:55:15.359Z,1.28
2019-01-12T02:56:15.064Z,1.36
2019-01-12T02:57:15.291Z,1.3
2019-01-12T02:58:15.270Z,1.33
2019-01-12T02:59:15.251Z,1.3
2019-01-12T03:00:15.236Z,1.35
2019-01-12T03:01:14.965Z,1.38
2019-01-12T03:02:15.200Z,1.38
2019-01-12T03:03:15.184Z,1.4
2019-01-12T03:04:14.913Z,1.33
2019-01-12T03:05:15.146Z,1.35
2019-01-12T03:06:15.125Z,1.33
2019-01-12T03:07:15.119Z,1.36
2019-01-12T03:08:14.839Z,1.36
2019-01-12T03:09:15.122Z,1.29
2019-01-12T03:10:14.799Z,1.32
2019-01-12T03:11:15.039Z,1.29
2019-01-12T03:12:15.017Z,1.35
2019-01-12T03:13:14.998Z,1.4
2019-01-12T03:14:14.993Z,1.39
2019-01-12T03:15:14.724Z,1.36
2019-01-12T03:16:14.946Z,1.42
2019-01-12T03:17:14.678Z,1.36
2019-01-12T03:18:14.902Z,1.35
2019-01-12T03:19:14.898Z,1.36
2019-01-12T03:20:14.874Z,1.4
2019-01-12T03:21:14.855Z,1.39
2019-01-12T03:22:14.826Z,1.44
2019-01-12T03:23:14.823Z,1.35
2019-01-12T03:24:14.789Z,1.39
2019-01-12T03:25:22.612Z,1.3
2019-01-12T03:26:14.757Z,1.42
2019-01-12T03:27:14.732Z,1.32
2019-01-12T03:28:14.719Z,1.44
2019-01-12T03:29:14.459Z,1.35
2019-01-12T03:30:14.697Z,1.36
2019-01-12T03:31:14.684Z,1.39
2019-01-12T03:32:14.400Z,1.4
2019-01-12T03:33:14.640Z,1.39
2019-01-12T03:34:14.611Z,1.39
2019-01-12T03:35:14.612Z,1.4
2019-01-12T03:36:14.575Z,1.36
2019-01-12T03:37:14.547Z,1.3
2019-01-12T03:38:14.531Z,1.24
2019-01-12T03:39:14.269Z,1.38
2019-01-12T03:40:14.502Z,1.3
2019-01-12T03:41:14.480Z,1.3
2019-01-12T03:42:14.456Z,1.39
2019-01-12T03:43:14.458Z,1.32
2019-01-12T03:44:14.433Z,1.3
2019-01-12T03:45:13.903Z,1.44
2019-01-12T03:46:14.380Z,1.32
2019-01-12T03:47:14.361Z,1.3
2019-01-12T03:48:14.347Z,1.32
2019-01-12T03:49:14.323Z,1.36
2019-01-12T03:50:14.307Z,1.32
2019-01-12T03:51:14.286Z,1.33
2019-01-12T03:52:14.267Z,1.39
2019-01-12T03:53:14.249Z,1.29
2019-01-12T03:54:13.983Z,1.39
2019-01-12T03:55:14.223Z,1.39
2019-01-12T03:56:14.195Z,1.33
2019-01-12T03:57:14.181Z,1.38
2019-01-12T03:58:14.166Z,1.36
2019-01-12T03:59:14.207Z,1.38
2019-01-12T04:00:14.120Z,1.36
2019-01-12T04:01:14.098Z,1.36
2019-01-12T04:02:14.085Z,1.36
2019-01-12T04:03:14.065Z,1.33
2019-01-12T04:04:14.048Z,1.29
2019-01-12T04:05:13.782Z,1.26
2019-01-12T04:06:14.014Z,1.32
2019-01-12T04:07:14.046Z,1.39
2019-01-12T04:08:13.980Z,1.28
2019-01-12T04:09:13.706Z,1.33
2019-01-12T04:10:13.936Z,1.39
2019-01-12T04:11:13.919Z,1.33
2019-01-12T04:12:13.899Z,1.39
2019-01-12T04:13:13.888Z,1.3
2019-01-12T04:14:13.867Z,1.35
2019-01-12T04:15:13.595Z,1.26
2019-01-12T04:16:13.827Z,1.39
2019-01-12T04:17:13.560Z,1.38
2019-01-12T04:18:13.793Z,1.39
2019-01-12T04:19:13.780Z,1.38
2019-01-12T04:20:13.748Z,1.28
2019-01-12T04:21:13.730Z,1.29
2019-01-12T04:22:13.711Z,1.38
2019-01-12T04:23:13.447Z,1.3
2019-01-12T04:24:13.677Z,1.3
2019-01-12T04:25:13.409Z,1.39
2019-01-12T04:26:13.639Z,1.36
2019-01-12T04:27:13.624Z,1.32
2019-01-12T04:28:13.602Z,1.4
2019-01-12T04:29:13.334Z,1.24
2019-01-12T04:30:13.621Z,1.26
2019-01-12T04:31:13.560Z,1.3
2019-01-12T04:32:13.526Z,1.35
2019-01-12T04:33:13.513Z,1.32
2019-01-12T04:34:13.241Z,1.33
2019-01-12T04:35:13.471Z,1.18
2019-01-12T04:36:13.456Z,1.3
2019-01-12T04:37:13.437Z,1.3
2019-01-12T04:38:13.178Z,1.33
2019-01-12T04:39:13.407Z,1.18
2019-01-12T04:40:13.538Z,1.33
2019-01-12T04:41:13.359Z,1.35
2019-01-12T04:42:13.355Z,1.36
2019-01-12T04:43:13.324Z,1.3
2019-01-12T04:44:13.058Z,1.36
2019-01-12T04:45:13.287Z,1.36
2019-01-12T04:46:13.322Z,1.29
2019-01-12T04:47:13.251Z,1.33
2019-01-12T04:48:13.230Z,1.33
2019-01-12T04:49:13.217Z,1.28
2019-01-12T04:50:13.193Z,1.3
2019-01-12T04:51:13.178Z,1.39
2019-01-12T04:52:13.166Z,1.39
2019-01-12T04:53:13.150Z,1.28
2019-01-12T04:54:13.139Z,1.35
2019-01-12T04:55:13.115Z,1.39
2019-01-12T04:56:13.099Z,1.39
2019-01-12T04:57:13.071Z,1.38
2019-01-12T04:58:13.050Z,1.42
2019-01-12T04:59:13.028Z,1.39
2019-01-12T05:00:13.025Z,1.35
2019-01-12T05:01:12.992Z,1.36
2019-01-12T05:02:12.975Z,1.35
2019-01-12T05:03:12.968Z,1.38
2019-01-12T05:04:12.943Z,1.33
2019-01-12T05:05:12.921Z,1.35
2019-01-12T05:06:12.909Z,1.36
2019-01-12T05:07:12.889Z,1.35
2019-01-12T05:08:12.634Z,1.47
2019-01-12T05:09:12.604Z,1.35
2019-01-12T05:10:12.836Z,1.39
2019-01-12T05:11:12.805Z,1.48
2019-01-12T05:12:12.787Z,1.48
2019-01-12T05:13:12.780Z,1.48
2019-01-12T05:14:12.759Z,1.51
2019-01-12T05:15:12.743Z,1.48
2019-01-12T05:16:12.726Z,1.46
2019-01-12T05:17:12.713Z,1.44
2019-01-12T05:18:12.686Z,1.38
2019-01-12T05:19:12.675Z,1.44
2019-01-12T05:20:12.645Z,1.47
2019-01-12T05:21:12.646Z,1.46
2019-01-12T05:22:12.602Z,1.4
2019-01-12T05:23:12.589Z,1.48
2019-01-12T05:24:12.569Z,1.46
2019-01-12T05:25:12.554Z,1.48
2019-01-12T05:26:12.530Z,1.39
2019-01-12T05:27:12.510Z,1.48
2019-01-12T05:28:11.995Z,1.48
2019-01-12T05:29:12.475Z,1.5
2019-01-12T05:30:12.459Z,1.46
2019-01-12T05:31:12.439Z,1.47
2019-01-12T05:32:12.421Z,1.51
2019-01-12T05:33:12.405Z,1.46
2019-01-12T05:34:12.141Z,1.5
2019-01-12T05:35:12.366Z,1.51
2019-01-12T05:36:12.347Z,1.51
2019-01-12T05:37:11.830Z,1.51
2019-01-12T05:38:12.312Z,1.48
2019-01-12T05:39:12.295Z,1.54
2019-01-12T05:40:12.272Z,1.48
2019-01-12T05:41:12.254Z,1.38
2019-01-12T05:42:12.232Z,1.39
2019-01-12T05:43:11.966Z,1.39
2019-01-12T05:44:12.200Z,1.5
2019-01-12T05:45:12.182Z,1.44
2019-01-12T05:46:11.910Z,1.39
2019-01-12T05:47:11.891Z,1.46
2019-01-12T05:48:12.123Z,1.39
2019-01-12T05:49:11.608Z,1.46
2019-01-12T05:50:12.121Z,1.44
2019-01-12T05:51:12.071Z,1.39
2019-01-12T05:52:12.060Z,1.46
2019-01-12T05:53:12.035Z,1.5
2019-01-12T05:54:12.011Z,1.4
2019-01-12T05:55:11.751Z,1.39
2019-01-12T05:56:12.002Z,1.47
2019-01-12T05:57:11.964Z,1.51
2019-01-12T05:58:11.947Z,1.48
2019-01-12T05:59:11.924Z,1.44
2019-01-12T06:00:11.902Z,1.48
2019-01-12T06:01:11.886Z,1.48
2019-01-12T06:02:11.872Z,1.53
2019-01-12T06:03:11.847Z,1.46
2019-01-12T06:04:11.829Z,1.54
2019-01-12T06:05:11.811Z,1.5
2019-01-12T06:06:11.790Z,1.5
2019-01-12T06:07:11.774Z,1.42
2019-01-12T06:08:11.759Z,1.38
2019-01-12T06:09:11.737Z,1.54
2019-01-12T06:10:11.718Z,1.56
2019-01-12T06:11:11.699Z,1.44
2019-01-12T06:12:11.689Z,1.5
2019-01-12T06:13:11.660Z,1.5
2019-01-12T06:14:11.643Z,1.51
2019-01-12T06:15:11.629Z,1.42
2019-01-12T06:16:11.607Z,1.53
2019-01-12T06:17:11.593Z,1.47
2019-01-12T06:18:11.568Z,1.56
2019-01-12T06:19:11.557Z,1.4
2019-01-12T06:20:11.532Z,1.42
2019-01-12T06:21:11.515Z,1.47
2019-01-12T06:22:11.544Z,1.51
2019-01-12T06:23:11.478Z,1.61
2019-01-12T06:24:11.462Z,1.48
2019-01-12T06:25:11.458Z,1.48
2019-01-12T06:26:11.423Z,1.48
2019-01-12T06:27:11.405Z,1.58
2019-01-12T06:28:11.391Z,1.5
2019-01-12T06:29:11.370Z,1.47
2019-01-12T06:30:11.358Z,1.46
2019-01-12T06:31:11.391Z,1.46
2019-01-12T06:32:11.314Z,1.4
2019-01-12T06:33:11.303Z,1.48
2019-01-12T06:34:11.284Z,1.47
2019-01-12T06:35:11.269Z,1.47
2019-01-12T06:36:11.238Z,1.56
2019-01-12T06:37:11.225Z,1.57
2019-01-12T06:38:10.704Z,1.47
2019-01-12T06:39:11.187Z,1.54
2019-01-12T06:40:10.676Z,1.42
2019-01-12T06:41:11.147Z,1.61
2019-01-12T06:42:11.130Z,1.46
2019-01-12T06:43:11.119Z,1.44
2019-01-12T06:44:11.094Z,1.51
2019-01-12T06:45:11.076Z,1.48
2019-01-12T06:46:10.818Z,1.5
2019-01-12T06:47:11.039Z,1.57
2019-01-12T06:48:10.775Z,1.5
2019-01-12T06:49:11.000Z,1.48
2019-01-12T06:50:10.992Z,1.53
2019-01-12T06:51:10.962Z,1.47
2019-01-12T06:52:10.948Z,1.44
2019-01-12T06:53:10.936Z,1.4
2019-01-12T06:54:10.911Z,1.39
2019-01-12T06:55:10.890Z,1.36
2019-01-12T06:56:15.667Z,1.47
2019-01-12T06:57:10.856Z,1.38
2019-01-12T06:58:10.838Z,1.38
2019-01-12T06:59:10.826Z,1.39
2019-01-12T07:00:10.555Z,1.4
2019-01-12T07:01:10.782Z,1.39
2019-01-12T07:02:10.763Z,1.32
2019-01-12T07:03:10.743Z,1.36
2019-01-12T07:04:10.728Z,1.36
2019-01-12T07:05:10.739Z,1.32
2019-01-12T07:06:10.692Z,1.32
2019-01-12T07:07:10.669Z,1.36
2019-01-12T07:08:10.416Z,1.33
2019-01-12T07:09:10.636Z,1.36
2019-01-12T07:10:10.616Z,1.33
2019-01-12T07:11:10.597Z,1.33
2019-01-12T07:12:10.586Z,1.22
2019-01-12T07:13:10.562Z,1.33
2019-01-12T07:14:10.540Z,1.39
2019-01-12T07:15:10.529Z,1.26
2019-01-12T07:16:10.526Z,1.32
2019-01-12T07:17:10.486Z,1.35
2019-01-12T07:18:13.801Z,1.29
2019-01-12T07:19:10.448Z,1.29
2019-01-12T07:20:10.474Z,1.38
2019-01-12T07:21:10.414Z,1.32
2019-01-12T07:22:10.151Z,1.29
2019-01-12T07:23:10.377Z,1.38
2019-01-12T07:24:10.373Z,1.35
2019-01-12T07:25:10.338Z,1.29
2019-01-12T07:26:10.326Z,1.32
2019-01-12T07:27:10.307Z,1.32
2019-01-12T07:28:10.280Z,1.33
2019-01-12T07:29:10.279Z,1.28
2019-01-12T07:30:10.250Z,1.38
2019-01-12T07:31:10.231Z,1.28
2019-01-12T07:32:10.210Z,1.29
2019-01-12T07:33:10.191Z,1.39
2019-01-12T07:34:09.929Z,1.28
2019-01-12T07:35:10.165Z,1.28
2019-01-12T07:36:10.134Z,1.29
2019-01-12T07:37:10.138Z,1.35
2019-01-12T07:38:10.100Z,1.42
2019-01-12T07:39:09.844Z,1.28
2019-01-12T07:40:09.828Z,1.39
2019-01-12T07:41:09.559Z,1.35
2019-01-12T07:42:10.082Z,1.4
2019-01-12T07:43:09.759Z,1.4
2019-01-12T07:44:09.992Z,1.42
2019-01-12T07:45:09.973Z,1.33
2019-01-12T07:46:09.706Z,1.4
2019-01-12T07:47:09.935Z,1.42
2019-01-12T07:48:09.672Z,1.46
2019-01-12T07:49:09.899Z,1.53
2019-01-12T07:50:09.644Z,1.48
2019-01-12T07:51:09.909Z,1.51
2019-01-12T07:52:09.858Z,1.4
2019-01-12T07:53:09.824Z,1.47
2019-01-12T07:54:09.807Z,1.51
2019-01-12T07:55:09.793Z,1.53
2019-01-12T07:56:09.524Z,1.4
2019-01-12T07:57:09.748Z,1.51
2019-01-12T07:58:09.742Z,1.42
2019-01-12T07:59:09.721Z,1.4
2019-01-12T08:00:09.699Z,1.57
2019-01-12T08:01:09.681Z,1.53
2019-01-12T08:02:09.810Z,1.44
2019-01-12T08:03:09.639Z,1.47
2019-01-12T08:04:09.622Z,1.42
2019-01-12T08:05:09.606Z,1.48
2019-01-12T08:06:09.337Z,1.47
2019-01-12T08:07:09.568Z,1.56
2019-01-12T08:08:09.548Z,1.47
2019-01-12T08:09:09.532Z,1.53
2019-01-12T08:10:09.515Z,1.53
2019-01-12T08:11:09.493Z,1.53
2019-01-12T08:12:09.484Z,1.57
2019-01-12T08:13:09.457Z,1.54
2019-01-12T08:14:09.448Z,1.6
2019-01-12T08:15:09.422Z,1.54
2019-01-12T08:16:09.405Z,1.56
2019-01-12T08:17:09.918Z,1.64
2019-01-12T08:18:09.368Z,1.64
2019-01-12T08:19:09.352Z,1.68
2019-01-12T08:20:09.334Z,1.56
2019-01-12T08:21:09.325Z,1.6
2019-01-12T08:22:09.294Z,1.74
2019-01-12T08:23:09.274Z,1.75
2019-01-12T08:24:09.263Z,1.69
2019-01-12T08:25:08.990Z,1.74
2019-01-12T08:26:09.222Z,1.87
2019-01-12T08:27:09.204Z,1.9
2019-01-12T08:28:09.184Z,1.92
2019-01-12T08:29:09.165Z,1.86
2019-01-12T08:30:09.148Z,1.83
2019-01-12T08:31:09.132Z,2.01
2019-01-12T08:32:09.115Z,1.97
2019-01-12T08:33:09.103Z,2.04
2019-01-12T08:34:09.081Z,1.97
2019-01-12T08:35:09.061Z,2.13
2019-01-12T08:36:09.049Z,2.11
2019-01-12T08:37:09.024Z,2.05
2019-01-12T08:38:08.757Z,2.05
2019-01-12T08:39:08.990Z,2.05
2019-01-12T08:40:08.967Z,2.06
2019-01-12T08:41:08.948Z,2.04
2019-01-12T08:42:08.687Z,2.15
2019-01-12T08:43:08.918Z,2.18
2019-01-12T08:44:08.650Z,2.15
2019-01-12T08:45:08.881Z,2.16
2019-01-12T08:46:08.858Z,2.2
2019-01-12T08:47:08.850Z,2.16
2019-01-12T08:48:08.823Z,2.26
2019-01-12T08:49:09.133Z,2.23
2019-01-12T08:50:08.787Z,2.2
2019-01-12T08:51:08.775Z,2.26
2019-01-12T08:52:08.504Z,2.26
2019-01-12T08:53:08.735Z,2.38
2019-01-12T08:54:08.722Z,2.33
2019-01-12T08:55:08.453Z,2.34
2019-01-12T08:56:08.689Z,2.36
2019-01-12T08:57:08.665Z,2.31
2019-01-12T08:58:08.644Z,2.47
2019-01-12T08:59:08.631Z,2.47
2019-01-12T09:00:08.370Z,2.47
2019-01-12T09:01:08.594Z,2.42
2019-01-12T09:02:08.327Z,2.52
2019-01-12T09:03:08.557Z,2.52
2019-01-12T09:04:08.545Z,2.54
2019-01-12T09:05:08.526Z,2.63
2019-01-12T09:06:08.258Z,2.58
2019-01-12T09:07:08.247Z,2.52
2019-01-12T09:08:08.473Z,2.65
2019-01-12T09:09:08.511Z,2.6
2019-01-12T09:10:08.190Z,2.65
2019-01-12T09:11:08.427Z,2.69
2019-01-12T09:12:08.403Z,2.7
2019-01-12T09:13:08.384Z,2.72
2019-01-12T09:14:08.370Z,2.72
2019-01-12T09:15:08.347Z,2.77
2019-01-12T09:16:08.343Z,2.78
2019-01-12T09:17:08.311Z,2.8
2019-01-12T09:18:08.297Z,2.77
2019-01-12T09:19:08.298Z,2.8
2019-01-12T09:20:08.261Z,2.88
2019-01-12T09:21:08.258Z,2.91
2019-01-12T09:22:08.228Z,2.9
2019-01-12T09:23:08.211Z,2.96
2019-01-12T09:24:08.189Z,2.96
2019-01-12T09:25:07.926Z,2.99
2019-01-12T09:26:08.160Z,2.9
2019-01-12T09:27:08.149Z,2.99
2019-01-12T09:28:08.126Z,3.02
2019-01-12T09:29:08.109Z,3.09
2019-01-12T09:30:08.091Z,3.05
2019-01-12T09:31:08.079Z,3.11
2019-01-12T09:32:08.059Z,2.93
2019-01-12T09:33:09.322Z,3.09
2019-01-12T09:34:08.025Z,2.95
2019-01-12T09:35:08.007Z,3.01
2019-01-12T09:36:07.994Z,3.08
2019-01-12T09:37:07.975Z,3.09
2019-01-12T09:38:08.106Z,3.06
2019-01-12T09:39:07.936Z,3.05
2019-01-12T09:40:07.671Z,3.03
2019-01-12T09:41:07.907Z,3.03
2019-01-12T09:42:07.724Z,3.19
2019-01-12T09:43:07.868Z,3.06
2019-01-12T09:44:07.602Z,3.14
2019-01-12T09:45:07.847Z,3.06
2019-01-12T09:46:07.825Z,3.11
2019-01-12T09:47:07.804Z,3.19
2019-01-12T09:48:07.783Z,3.17
2019-01-12T09:49:07.772Z,3.17
2019-01-12T09:50:07.755Z,3.14
2019-01-12T09:51:07.490Z,3.17
2019-01-12T09:52:07.717Z,3.17
2019-01-12T09:53:07.704Z,3.19
2019-01-12T09:54:07.687Z,3.19
2019-01-12T09:55:07.673Z,3.27
2019-01-12T09:56:07.650Z,3.27
2019-01-12T09:57:07.639Z,3.21
2019-01-12T09:58:07.718Z,3.17
2019-01-12T09:59:07.602Z,3.35
2019-01-12T10:00:07.589Z,3.35
2019-01-12T10:01:07.574Z,3.27
2019-01-12T10:02:07.550Z,3.29
2019-01-12T10:03:07.534Z,3.35
2019-01-12T10:04:07.516Z,3.48
2019-01-12T10:05:07.502Z,3.39
2019-01-12T10:06:07.488Z,3.46
2019-01-12T10:07:07.470Z,3.45
2019-01-12T10:08:07.454Z,3.39
2019-01-12T10:09:07.235Z,3.49
2019-01-12T10:10:07.171Z,3.42
2019-01-12T10:11:07.400Z,3.45
2019-01-12T10:12:07.388Z,3.4
2019-01-12T10:13:07.368Z,3.37
2019-01-12T10:14:07.359Z,3.43
2019-01-12T10:15:07.338Z,3.49
2019-01-12T10:16:07.316Z,3.54
2019-01-12T10:17:07.303Z,3.56
2019-01-12T10:18:07.281Z,3.6
2019-01-12T10:19:07.280Z,3.64
2019-01-12T10:20:07.253Z,3.69
2019-01-12T10:21:07.272Z,3.79
2019-01-12T10:22:07.217Z,3.85
2019-01-12T10:23:07.204Z,3.81
2019-01-12T10:24:07.184Z,3.85
2019-01-12T10:25:07.168Z,3.85
2019-01-12T10:26:07.151Z,3.93
2019-01-12T10:27:06.887Z,3.93
2019-01-12T10:28:07.121Z,4.04
2019-01-12T10:29:07.104Z,4.08
2019-01-12T10:30:07.087Z,4.07
2019-01-12T10:31:07.068Z,4.14
2019-01-12T10:32:07.053Z,4.08
2019-01-12T10:33:07.038Z,4.1
2019-01-12T10:34:07.024Z,4.08
2019-01-12T10:35:06.760Z,4.14
2019-01-12T10:36:06.992Z,4.1
2019-01-12T10:37:06.972Z,4.08
2019-01-12T10:38:06.961Z,4.12
2019-01-12T10:39:06.941Z,4.17
2019-01-12T10:40:06.935Z,4.18
2019-01-12T10:41:06.909Z,4.17
2019-01-12T10:42:06.897Z,4.17
2019-01-12T10:43:06.875Z,4.18
2019-01-12T10:44:06.860Z,4.12
2019-01-12T10:45:07.137Z,4.12
2019-01-12T10:46:06.829Z,4.12
2019-01-12T10:47:06.813Z,4.08
2019-01-12T10:48:06.799Z,4.15
2019-01-12T10:49:06.783Z,4.17
2019-01-12T10:50:06.769Z,4.22
2019-01-12T10:51:06.749Z,4.15
2019-01-12T10:52:06.731Z,4.18
2019-01-12T10:53:06.719Z,4.07
2019-01-12T10:54:06.704Z,4.04
2019-01-12T10:55:06.689Z,4.04
2019-01-12T10:56:06.669Z,4.02
2019-01-12T10:57:10.418Z,3.93
2019-01-12T10:58:06.390Z,4.07
2019-01-12T10:59:06.625Z,3.97
2019-01-12T11:00:06.614Z,4.04
2019-01-12T11:01:06.639Z,4.17
2019-01-12T11:02:06.574Z,4.17
2019-01-12T11:03:06.576Z,4.18
2019-01-12T11:04:06.544Z,4.17
2019-01-12T11:05:06.530Z,4.22
2019-01-12T11:06:06.511Z,4.17
2019-01-12T11:07:06.523Z,4.14
2019-01-12T11:08:06.541Z,4.15
2019-01-12T11:09:06.462Z,4.17
2019-01-12T11:10:08.975Z,4.2
2019-01-12T11:11:06.432Z,4.18
2019-01-12T11:12:06.166Z,4.2
2019-01-12T11:13:06.399Z,4.14
2019-01-12T11:14:06.389Z,4.15
2019-01-12T11:15:06.119Z,4.17
2019-01-12T11:16:06.405Z,4.1
2019-01-12T11:17:06.339Z,4.1
2019-01-12T11:18:06.324Z,4.2
2019-01-12T11:19:06.305Z,4.15
2019-01-12T11:20:06.304Z,3.99
2019-01-12T11:21:06.273Z,3.94
2019-01-12T11:22:06.254Z,3.86
2019-01-12T11:23:06.241Z,3.89
2019-01-12T11:24:06.277Z,3.89
2019-01-12T11:25:06.210Z,3.82
2019-01-12T11:26:06.007Z,3.9
2019-01-12T11:27:12.051Z,3.76
2019-01-12T11:28:06.164Z,3.79
2019-01-12T11:29:06.143Z,3.76
2019-01-12T11:30:06.130Z,3.74
2019-01-12T11:31:06.117Z,3.71
2019-01-12T11:32:06.100Z,3.67
2019-01-12T11:33:06.080Z,3.69
2019-01-12T11:34:06.064Z,3.6
2019-01-12T11:35:06.053Z,3.57
2019-01-12T11:36:06.038Z,3.6
2019-01-12T11:37:06.018Z,3.6
2019-01-12T11:38:06.012Z,3.6
2019-01-12T11:39:05.982Z,3.49
2019-01-12T11:40:05.718Z,3.48
2019-01-12T11:41:05.957Z,3.42
2019-01-12T11:42:05.686Z,3.46
2019-01-12T11:43:05.925Z,3.3
2019-01-12T11:44:05.900Z,3.32
2019-01-12T11:45:05.887Z,3.35
2019-01-12T11:46:05.871Z,3.42
2019-01-12T11:47:05.856Z,3.34
2019-01-12T11:48:05.841Z,3.46
2019-01-12T11:49:05.826Z,3.49
2019-01-12T11:50:05.811Z,3.48
2019-01-12T11:51:05.814Z,3.54
2019-01-12T11:52:05.770Z,3.43
2019-01-12T11:53:05.971Z,3.43
2019-01-12T11:54:05.737Z,3.43
2019-01-12T11:55:05.797Z,3.53
2019-01-12T11:56:05.712Z,3.48
2019-01-12T11:57:05.704Z,3.42
2019-01-12T11:58:05.694Z,3.43
2019-01-12T11:59:05.705Z,3.39
2019-01-12T12:00:05.399Z,3.17
2019-01-12T12:01:05.662Z,3.21
2019-01-12T12:02:05.642Z,3.2
2019-01-12T12:03:05.606Z,3.16
2019-01-12T12:04:05.630Z,3.17
2019-01-12T12:05:05.343Z,3.13
2019-01-12T12:06:05.570Z,3.11
2019-01-12T12:07:05.551Z,3.14
2019-01-12T12:08:05.507Z,3.17
2019-01-12T12:09:05.250Z,3.17
2019-01-12T12:10:05.509Z,3.23
2019-01-12T12:11:05.456Z,3.13
2019-01-12T12:12:05.452Z,3.13
2019-01-12T12:13:05.440Z,3.21
2019-01-12T12:14:05.407Z,3.19
2019-01-12T12:15:05.189Z,3.19
2019-01-12T12:16:07.489Z,3.19
2019-01-12T12:17:05.117Z,3.21
2019-01-12T12:18:05.346Z,3.2
2019-01-12T12:19:05.325Z,3.34
2019-01-12T12:20:05.332Z,3.42
2019-01-12T12:21:05.306Z,3.32
2019-01-12T12:22:05.031Z,3.2
2019-01-12T12:23:05.019Z,3.34
2019-01-12T12:24:05.289Z,3.26
2019-01-12T12:25:05.224Z,3.26
2019-01-12T12:26:05.211Z,3.35
2019-01-12T12:27:05.221Z,3.4
2019-01-12T12:28:04.933Z,3.37
2019-01-12T12:29:05.163Z,3.46
2019-01-12T12:30:04.915Z,3.42
2019-01-12T12:31:05.125Z,3.45
2019-01-12T12:32:05.113Z,3.34
2019-01-12T12:33:05.102Z,3.29
2019-01-12T12:34:05.081Z,3.23
2019-01-12T12:35:05.090Z,3.2
2019-01-12T12:36:05.046Z,3.24
2019-01-12T12:37:05.030Z,3.23
2019-01-12T12:38:05.012Z,3.23
2019-01-12T12:39:04.747Z,3.27
2019-01-12T12:40:04.752Z,3.26
2019-01-12T12:41:04.986Z,3.21
2019-01-12T12:42:04.949Z,3.2
2019-01-12T12:43:04.934Z,3.21
2019-01-12T12:44:04.921Z,3.2
2019-01-12T12:45:04.757Z,3.23
2019-01-12T12:46:04.890Z,3.26
2019-01-12T12:47:04.616Z,3.23
2019-01-12T12:48:04.856Z,3.26
2019-01-12T12:49:04.833Z,3.2
2019-01-12T12:50:04.906Z,3.14
2019-01-12T12:51:04.795Z,3.19
2019-01-12T12:52:04.780Z,3.13
2019-01-12T12:53:04.529Z,3.06
2019-01-12T12:54:04.750Z,3.08
2019-01-12T12:55:04.738Z,3.03
2019-01-12T12:56:04.713Z,2.95
2019-01-12T12:57:04.699Z,3.06
2019-01-12T12:58:04.683Z,3.08
2019-01-12T12:59:04.426Z,3.03
2019-01-12T13:00:04.664Z,2.93
2019-01-12T13:01:04.633Z,2.93
2019-01-12T13:02:04.424Z,3.03
2019-01-12T13:03:04.599Z,2.96
2019-01-12T13:04:04.328Z,3.09
2019-01-12T13:05:04.563Z,3.06
2019-01-12T13:06:04.551Z,3.05
2019-01-12T13:07:04.529Z,3.08
2019-01-12T13:08:04.536Z,3.09
2019-01-12T13:09:04.509Z,2.93
2019-01-12T13:10:04.254Z,3.01
2019-01-12T13:11:04.463Z,3.05
2019-01-12T13:12:04.447Z,2.99
2019-01-12T13:13:04.434Z,2.93
2019-01-12T13:14:04.410Z,2.98
2019-01-12T13:15:04.443Z,2.95
2019-01-12T13:16:04.384Z,3.01
2019-01-12T13:17:04.360Z,3.02
2019-01-12T13:18:04.344Z,2.93
2019-01-12T13:19:04.322Z,2.93
2019-01-12T13:20:04.410Z,3.08
2019-01-12T13:21:04.305Z,3.05
2019-01-12T13:22:04.283Z,3.05